sensor_id;sensor_type;location;lat;lon;timestamp;pressure;altitude;pressure_sealevel;temperature;humidity
19447;BME280;9862;49.462;11.054;2023-05-14T00:02:03;98107.44;;;14.29;100.00
19447;BME280;9862;49.462;11.054;2023-05-14T00:04:30;98108.84;;;14.32;100.00
19447;BME280;9862;49.462;11.054;2023-05-14T00:06:56;98105.34;;;14.31;100.00
19447;BME280;9862;49.462;11.054;2023-05-14T00:09:23;98098.94;;;14.32;100.00
19447;BME280;9862;49.462;11.054;2023-05-14T00:11:51;98099.53;;;14.35;100.00
19447;BME280;9862;49.462;11.054;2023-05-14T00:14:17;98102.66;;;14.31;100.00
19447;BME280;9862;49.462;11.054;2023-05-14T00:16:44;98095.44;;;14.32;100.00
19447;BME280;9862;49.462;11.054;2023-05-14T00:19:11;98085.56;;;14.32;100.00
19447;BME280;9862;49.462;11.054;2023-05-14T00:21:37;98087.19;;;14.33;100.00
19447;BME280;9862;49.462;11.054;2023-05-14T00:24:04;98080.19;;;14.32;100.00
19447;BME280;9862;49.462;11.054;2023-05-14T00:26:31;98075.66;;;14.33;100.00
19447;BME280;9862;49.462;11.054;2023-05-14T00:28:58;98070.53;;;14.31;100.00
19447;BME280;9862;49.462;11.054;2023-05-14T00:31:25;98073.69;;;14.28;100.00
19447;BME280;9862;49.462;11.054;2023-05-14T00:33:52;98070.41;;;14.26;100.00
19447;BME280;9862;49.462;11.054;2023-05-14T00:36:18;98074.50;;;14.29;100.00
19447;BME280;9862;49.462;11.054;2023-05-14T00:38:45;98069.50;;;14.32;100.00
19447;BME280;9862;49.462;11.054;2023-05-14T00:41:11;98069.97;;;14.29;100.00
19447;BME280;9862;49.462;11.054;2023-05-14T00:43:38;98075.53;;;14.28;100.00
19447;BME280;9862;49.462;11.054;2023-05-14T00:46:06;98078.19;;;14.28;100.00
19447;BME280;9862;49.462;11.054;2023-05-14T00:48:33;98070.16;;;14.28;100.00
19447;BME280;9862;49.462;11.054;2023-05-14T00:50:59;98069.34;;;14.27;100.00
19447;BME280;9862;49.462;11.054;2023-05-14T00:53:26;98075.75;;;14.26;100.00
19447;BME280;9862;49.462;11.054;2023-05-14T00:55:53;98064.72;;;14.23;100.00
19447;BME280;9862;49.462;11.054;2023-05-14T00:58:20;98066.91;;;14.26;100.00
19447;BME280;9862;49.462;11.054;2023-05-14T01:00:47;98072.28;;;14.38;100.00
19447;BME280;9862;49.462;11.054;2023-05-14T01:03:15;98077.75;;;14.31;100.00
19447;BME280;9862;49.462;11.054;2023-05-14T01:05:48;98071.34;;;14.20;100.00
19447;BME280;9862;49.462;11.054;2023-05-14T01:08:26;98085.44;;;13.86;100.00
19447;BME280;9862;49.462;11.054;2023-05-14T01:11:00;98086.59;;;13.48;100.00
19447;BME280;9862;49.462;11.054;2023-05-14T01:13:33;98085.06;;;13.22;100.00
19447;BME280;9862;49.462;11.054;2023-05-14T01:16:03;98085.41;;;13.07;100.00
19447;BME280;9862;49.462;11.054;2023-05-14T01:18:31;98081.19;;;13.00;100.00
19447;BME280;9862;49.462;11.054;2023-05-14T01:20:58;98089.25;;;12.93;100.00
19447;BME280;9862;49.462;11.054;2023-05-14T01:23:26;98089.72;;;12.90;100.00
19447;BME280;9862;49.462;11.054;2023-05-14T01:25:53;98086.16;;;12.96;100.00
19447;BME280;9862;49.462;11.054;2023-05-14T01:28:26;98095.34;;;13.00;100.00
19447;BME280;9862;49.462;11.054;2023-05-14T01:30:57;98089.72;;;13.08;100.00
19447;BME280;9862;49.462;11.054;2023-05-14T01:33:28;98081.03;;;13.13;100.00
19447;BME280;9862;49.462;11.054;2023-05-14T01:35:55;98086.72;;;13.23;100.00
19447;BME280;9862;49.462;11.054;2023-05-14T01:38:23;98082.88;;;13.31;100.00
19447;BME280;9862;49.462;11.054;2023-05-14T01:40:52;98083.41;;;13.39;100.00
19447;BME280;9862;49.462;11.054;2023-05-14T01:43:19;98082.28;;;13.47;100.00
19447;BME280;9862;49.462;11.054;2023-05-14T01:45:46;98087.09;;;13.57;100.00
19447;BME280;9862;49.462;11.054;2023-05-14T01:48:13;98088.06;;;13.62;100.00
19447;BME280;9862;49.462;11.054;2023-05-14T01:50:40;98084.69;;;13.67;100.00
19447;BME280;9862;49.462;11.054;2023-05-14T01:53:06;98077.03;;;13.70;100.00
19447;BME280;9862;49.462;11.054;2023-05-14T01:55:33;98075.53;;;13.74;100.00
19447;BME280;9862;49.462;11.054;2023-05-14T01:58:01;98075.66;;;13.80;100.00
19447;BME280;9862;49.462;11.054;2023-05-14T02:00:27;98074.75;;;13.86;100.00
19447;BME280;9862;49.462;11.054;2023-05-14T02:02:54;98078.38;;;13.91;100.00
19447;BME280;9862;49.462;11.054;2023-05-14T02:05:21;98075.00;;;13.96;100.00
19447;BME280;9862;49.462;11.054;2023-05-14T02:07:48;98069.19;;;13.99;100.00
19447;BME280;9862;49.462;11.054;2023-05-14T02:10:15;98064.22;;;14.02;100.00
19447;BME280;9862;49.462;11.054;2023-05-14T02:12:43;98060.84;;;14.07;100.00
19447;BME280;9862;49.462;11.054;2023-05-14T02:15:11;98062.47;;;14.08;100.00
19447;BME280;9862;49.462;11.054;2023-05-14T02:17:39;98062.84;;;14.12;100.00
19447;BME280;9862;49.462;11.054;2023-05-14T02:20:10;98061.56;;;14.14;100.00
19447;BME280;9862;49.462;11.054;2023-05-14T02:22:40;98059.81;;;14.20;100.00
19447;BME280;9862;49.462;11.054;2023-05-14T02:25:10;98045.25;;;14.27;100.00
19447;BME280;9862;49.462;11.054;2023-05-14T02:27:36;98049.47;;;14.23;100.00
19447;BME280;9862;49.462;11.054;2023-05-14T02:30:04;98052.25;;;14.17;100.00
19447;BME280;9862;49.462;11.054;2023-05-14T02:32:32;98057.81;;;14.15;100.00
19447;BME280;9862;49.462;11.054;2023-05-14T02:34:59;98047.50;;;14.19;100.00
19447;BME280;9862;49.462;11.054;2023-05-14T02:37:26;98053.75;;;14.24;100.00
19447;BME280;9862;49.462;11.054;2023-05-14T02:39:52;98051.44;;;14.28;100.00
19447;BME280;9862;49.462;11.054;2023-05-14T02:42:19;98055.97;;;14.27;100.00
19447;BME280;9862;49.462;11.054;2023-05-14T02:44:46;98042.63;;;14.39;100.00
19447;BME280;9862;49.462;11.054;2023-05-14T02:47:13;98056.72;;;14.46;100.00
19447;BME280;9862;49.462;11.054;2023-05-14T02:49:41;98056.44;;;14.36;100.00
19447;BME280;9862;49.462;11.054;2023-05-14T02:52:07;98065.28;;;14.13;100.00
19447;BME280;9862;49.462;11.054;2023-05-14T02:54:34;98063.22;;;13.85;100.00
19447;BME280;9862;49.462;11.054;2023-05-14T02:57:00;98056.41;;;13.59;100.00
19447;BME280;9862;49.462;11.054;2023-05-14T02:59:27;98050.38;;;13.34;100.00
19447;BME280;9862;49.462;11.054;2023-05-14T03:01:53;98055.50;;;13.17;100.00
19447;BME280;9862;49.462;11.054;2023-05-14T03:04:20;98055.28;;;13.00;100.00
19447;BME280;9862;49.462;11.054;2023-05-14T03:06:48;98059.00;;;12.99;100.00
19447;BME280;9862;49.462;11.054;2023-05-14T03:09:14;98054.47;;;13.00;100.00
19447;BME280;9862;49.462;11.054;2023-05-14T03:11:41;98058.97;;;13.17;100.00
19447;BME280;9862;49.462;11.054;2023-05-14T03:14:08;98055.81;;;13.27;100.00
19447;BME280;9862;49.462;11.054;2023-05-14T03:16:34;98053.28;;;13.32;100.00
19447;BME280;9862;49.462;11.054;2023-05-14T03:19:01;98051.28;;;13.28;100.00
19447;BME280;9862;49.462;11.054;2023-05-14T03:21:28;98053.19;;;13.39;100.00
19447;BME280;9862;49.462;11.054;2023-05-14T03:23:56;98045.63;;;13.36;100.00
19447;BME280;9862;49.462;11.054;2023-05-14T03:26:23;98044.59;;;13.37;100.00
19447;BME280;9862;49.462;11.054;2023-05-14T03:28:50;98051.09;;;13.41;100.00
19447;BME280;9862;49.462;11.054;2023-05-14T03:31:16;98046.94;;;13.45;100.00
19447;BME280;9862;49.462;11.054;2023-05-14T03:33:43;98048.72;;;13.51;100.00
19447;BME280;9862;49.462;11.054;2023-05-14T03:36:10;98050.00;;;13.60;100.00
19447;BME280;9862;49.462;11.054;2023-05-14T03:38:36;98049.09;;;13.66;100.00
19447;BME280;9862;49.462;11.054;2023-05-14T03:41:04;98050.19;;;13.77;100.00
19447;BME280;9862;49.462;11.054;2023-05-14T03:43:31;98045.56;;;13.84;100.00
19447;BME280;9862;49.462;11.054;2023-05-14T03:45:57;98049.38;;;13.88;100.00
19447;BME280;9862;49.462;11.054;2023-05-14T03:48:24;98052.44;;;13.92;100.00
19447;BME280;9862;49.462;11.054;2023-05-14T03:50:50;98054.41;;;13.96;100.00
19447;BME280;9862;49.462;11.054;2023-05-14T03:53:17;98042.81;;;14.02;100.00
19447;BME280;9862;49.462;11.054;2023-05-14T03:55:44;98042.34;;;14.06;100.00
19447;BME280;9862;49.462;11.054;2023-05-14T03:58:11;98046.88;;;14.05;100.00
19447;BME280;9862;49.462;11.054;2023-05-14T04:00:39;98045.25;;;14.04;100.00
19447;BME280;9862;49.462;11.054;2023-05-14T04:03:06;98046.88;;;14.05;100.00
19447;BME280;9862;49.462;11.054;2023-05-14T04:05:32;98050.75;;;14.09;100.00
19447;BME280;9862;49.462;11.054;2023-05-14T04:07:59;98048.97;;;14.03;100.00
19447;BME280;9862;49.462;11.054;2023-05-14T04:10:26;98048.50;;;14.06;100.00
19447;BME280;9862;49.462;11.054;2023-05-14T04:12:53;98050.50;;;14.11;100.00
19447;BME280;9862;49.462;11.054;2023-05-14T04:15:22;98045.50;;;14.14;100.00
19447;BME280;9862;49.462;11.054;2023-05-14T04:17:48;98041.28;;;14.18;100.00
19447;BME280;9862;49.462;11.054;2023-05-14T04:20:15;98051.78;;;14.20;100.00
19447;BME280;9862;49.462;11.054;2023-05-14T04:22:41;98053.66;;;14.19;100.00
19447;BME280;9862;49.462;11.054;2023-05-14T04:25:08;98052.00;;;14.18;100.00
19447;BME280;9862;49.462;11.054;2023-05-14T04:27:35;98049.94;;;14.20;100.00
19447;BME280;9862;49.462;11.054;2023-05-14T04:30:02;98055.75;;;14.41;100.00
19447;BME280;9862;49.462;11.054;2023-05-14T04:32:30;98045.88;;;14.29;100.00
19447;BME280;9862;49.462;11.054;2023-05-14T04:34:56;98042.16;;;14.30;100.00
19447;BME280;9862;49.462;11.054;2023-05-14T04:37:23;98037.38;;;14.32;100.00
19447;BME280;9862;49.462;11.054;2023-05-14T04:39:50;98042.72;;;14.32;100.00
19447;BME280;9862;49.462;11.054;2023-05-14T04:42:16;98051.22;;;14.41;100.00
19447;BME280;9862;49.462;11.054;2023-05-14T04:44:43;98044.59;;;14.44;100.00
19447;BME280;9862;49.462;11.054;2023-05-14T04:47:09;98032.34;;;14.36;100.00
19447;BME280;9862;49.462;11.054;2023-05-14T04:49:38;98043.63;;;14.26;100.00
19447;BME280;9862;49.462;11.054;2023-05-14T04:52:04;98040.50;;;14.29;100.00
19447;BME280;9862;49.462;11.054;2023-05-14T04:54:31;98039.34;;;14.25;100.00
19447;BME280;9862;49.462;11.054;2023-05-14T04:56:58;98041.34;;;14.30;100.00
19447;BME280;9862;49.462;11.054;2023-05-14T04:59:27;98037.94;;;14.35;100.00
19447;BME280;9862;49.462;11.054;2023-05-14T05:01:53;98031.66;;;14.41;100.00
19447;BME280;9862;49.462;11.054;2023-05-14T05:04:20;98033.63;;;14.33;100.00
19447;BME280;9862;49.462;11.054;2023-05-14T05:06:49;98035.66;;;14.50;100.00
19447;BME280;9862;49.462;11.054;2023-05-14T05:09:16;98031.69;;;14.52;100.00
19447;BME280;9862;49.462;11.054;2023-05-14T05:11:43;98037.59;;;14.43;100.00
19447;BME280;9862;49.462;11.054;2023-05-14T05:14:09;98042.63;;;14.39;100.00
19447;BME280;9862;49.462;11.054;2023-05-14T05:16:36;98044.13;;;14.47;100.00
19447;BME280;9862;49.462;11.054;2023-05-14T05:19:02;98035.09;;;14.48;100.00
19447;BME280;9862;49.462;11.054;2023-05-14T05:21:29;98038.19;;;14.33;100.00
19447;BME280;9862;49.462;11.054;2023-05-14T05:23:57;98030.38;;;14.31;100.00
19447;BME280;9862;49.462;11.054;2023-05-14T05:26:24;98029.91;;;14.23;100.00
19447;BME280;9862;49.462;11.054;2023-05-14T05:28:51;98027.56;;;14.15;100.00
19447;BME280;9862;49.462;11.054;2023-05-14T05:31:18;98027.56;;;14.15;100.00
19447;BME280;9862;49.462;11.054;2023-05-14T05:33:45;98026.41;;;14.22;100.00
19447;BME280;9862;49.462;11.054;2023-05-14T05:36:13;98023.88;;;14.39;100.00
19447;BME280;9862;49.462;11.054;2023-05-14T05:38:39;98012.72;;;14.54;100.00
19447;BME280;9862;49.462;11.054;2023-05-14T05:41:07;98018.75;;;14.61;100.00
19447;BME280;9862;49.462;11.054;2023-05-14T05:43:34;98017.59;;;14.69;100.00
19447;BME280;9862;49.462;11.054;2023-05-14T05:46:00;98029.22;;;14.74;100.00
19447;BME280;9862;49.462;11.054;2023-05-14T05:48:27;98023.41;;;14.77;100.00
19447;BME280;9862;49.462;11.054;2023-05-14T05:50:54;98026.66;;;14.79;100.00
19447;BME280;9862;49.462;11.054;2023-05-14T05:53:20;98016.16;;;14.89;100.00
19447;BME280;9862;49.462;11.054;2023-05-14T05:55:47;98013.44;;;15.01;100.00
19447;BME280;9862;49.462;11.054;2023-05-14T05:58:17;98012.13;;;15.04;100.00
19447;BME280;9862;49.462;11.054;2023-05-14T06:00:44;98011.34;;;15.03;100.00
19447;BME280;9862;49.462;11.054;2023-05-14T06:03:11;98014.25;;;15.02;100.00
19447;BME280;9862;49.462;11.054;2023-05-14T06:05:38;98012.97;;;15.04;100.00
19447;BME280;9862;49.462;11.054;2023-05-14T06:08:05;98016.38;;;15.00;100.00
19447;BME280;9862;49.462;11.054;2023-05-14T06:10:32;98020.66;;;15.01;100.00
19447;BME280;9862;49.462;11.054;2023-05-14T06:12:59;98025.91;;;15.07;100.00
19447;BME280;9862;49.462;11.054;2023-05-14T06:15:27;98013.75;;;15.16;100.00
19447;BME280;9862;49.462;11.054;2023-05-14T06:17:53;98011.28;;;15.27;100.00
19447;BME280;9862;49.462;11.054;2023-05-14T06:20:20;98018.59;;;15.31;100.00
19447;BME280;9862;49.462;11.054;2023-05-14T06:22:46;98020.38;;;15.26;100.00
19447;BME280;9862;49.462;11.054;2023-05-14T06:25:13;98023.13;;;15.31;100.00
19447;BME280;9862;49.462;11.054;2023-05-14T06:27:39;98023.63;;;15.28;100.00
19447;BME280;9862;49.462;11.054;2023-05-14T06:30:07;98024.69;;;15.27;100.00
19447;BME280;9862;49.462;11.054;2023-05-14T06:32:36;98016.28;;;15.23;100.00
19447;BME280;9862;49.462;11.054;2023-05-14T06:35:04;98023.75;;;15.21;100.00
19447;BME280;9862;49.462;11.054;2023-05-14T06:37:30;98031.34;;;15.12;100.00
19447;BME280;9862;49.462;11.054;2023-05-14T06:39:57;98019.13;;;15.05;100.00
19447;BME280;9862;49.462;11.054;2023-05-14T06:42:23;98029.75;;;15.00;100.00
19447;BME280;9862;49.462;11.054;2023-05-14T06:44:50;98024.41;;;15.00;100.00
19447;BME280;9862;49.462;11.054;2023-05-14T06:47:17;98033.13;;;15.07;100.00
19447;BME280;9862;49.462;11.054;2023-05-14T06:49:45;98026.16;;;15.06;100.00
19447;BME280;9862;49.462;11.054;2023-05-14T06:52:11;98026.47;;;15.09;100.00
19447;BME280;9862;49.462;11.054;2023-05-14T06:54:38;98024.28;;;15.06;100.00
19447;BME280;9862;49.462;11.054;2023-05-14T06:57:04;98017.03;;;15.07;100.00
19447;BME280;9862;49.462;11.054;2023-05-14T06:59:31;98016.19;;;15.18;100.00
19447;BME280;9862;49.462;11.054;2023-05-14T07:01:58;98016.97;;;15.30;100.00
19447;BME280;9862;49.462;11.054;2023-05-14T07:04:25;98021.44;;;15.41;100.00
19447;BME280;9862;49.462;11.054;2023-05-14T07:06:53;98018.78;;;15.41;100.00
19447;BME280;9862;49.462;11.054;2023-05-14T07:09:20;98017.97;;;15.41;100.00
19447;BME280;9862;49.462;11.054;2023-05-14T07:11:46;98017.16;;;15.40;100.00
19447;BME280;9862;49.462;11.054;2023-05-14T07:14:13;98019.44;;;15.49;100.00
19447;BME280;9862;49.462;11.054;2023-05-14T07:16:40;98015.00;;;15.54;100.00
19447;BME280;9862;49.462;11.054;2023-05-14T07:19:07;98013.69;;;15.57;100.00
19447;BME280;9862;49.462;11.054;2023-05-14T07:21:33;98011.09;;;15.73;100.00
19447;BME280;9862;49.462;11.054;2023-05-14T07:24:01;98006.03;;;15.77;100.00
19447;BME280;9862;49.462;11.054;2023-05-14T07:26:28;98002.63;;;15.82;100.00
19447;BME280;9862;49.462;11.054;2023-05-14T07:28:55;98008.31;;;15.85;100.00
19447;BME280;9862;49.462;11.054;2023-05-14T07:31:22;98005.72;;;15.90;100.00
19447;BME280;9862;49.462;11.054;2023-05-14T07:33:48;98003.94;;;15.96;100.00
19447;BME280;9862;49.462;11.054;2023-05-14T07:36:15;98005.41;;;16.03;100.00
19447;BME280;9862;49.462;11.054;2023-05-14T07:38:42;98000.50;;;16.00;100.00
19447;BME280;9862;49.462;11.054;2023-05-14T07:41:10;97993.19;;;15.96;100.00
19447;BME280;9862;49.462;11.054;2023-05-14T07:43:36;97998.63;;;16.01;100.00
19447;BME280;9862;49.462;11.054;2023-05-14T07:46:04;97998.56;;;16.13;100.00
19447;BME280;9862;49.462;11.054;2023-05-14T07:48:31;97994.47;;;16.27;100.00
19447;BME280;9862;49.462;11.054;2023-05-14T07:50:57;97994.72;;;16.42;100.00
19447;BME280;9862;49.462;11.054;2023-05-14T07:53:25;97991.84;;;16.49;100.00
19447;BME280;9862;49.462;11.054;2023-05-14T07:55:51;97987.91;;;16.56;100.00
19447;BME280;9862;49.462;11.054;2023-05-14T07:58:20;97980.91;;;16.55;100.00
19447;BME280;9862;49.462;11.054;2023-05-14T08:00:47;97984.50;;;16.61;100.00
19447;BME280;9862;49.462;11.054;2023-05-14T08:03:13;97982.53;;;16.73;100.00
19447;BME280;9862;49.462;11.054;2023-05-14T08:05:40;97990.19;;;16.65;100.00
19447;BME280;9862;49.462;11.054;2023-05-14T08:08:07;97989.69;;;16.68;100.00
19447;BME280;9862;49.462;11.054;2023-05-14T08:10:33;97985.97;;;16.69;100.00
19447;BME280;9862;49.462;11.054;2023-05-14T08:13:00;97977.50;;;16.60;100.00
19447;BME280;9862;49.462;11.054;2023-05-14T08:15:28;97984.50;;;16.61;100.00
19447;BME280;9862;49.462;11.054;2023-05-14T08:17:55;97980.09;;;16.55;100.00
19447;BME280;9862;49.462;11.054;2023-05-14T08:20:23;97987.34;;;16.54;100.00
19447;BME280;9862;49.462;11.054;2023-05-14T08:22:49;97986.81;;;16.52;100.00
19447;BME280;9862;49.462;11.054;2023-05-14T08:25:16;97981.28;;;16.42;100.00
19447;BME280;9862;49.462;11.054;2023-05-14T08:27:42;97986.66;;;16.42;100.00
19447;BME280;9862;49.462;11.054;2023-05-14T08:30:10;97984.53;;;16.44;100.00
19447;BME280;9862;49.462;11.054;2023-05-14T08:32:38;97990.16;;;16.43;100.00
19447;BME280;9862;49.462;11.054;2023-05-14T08:35:05;97978.78;;;16.36;100.00
19447;BME280;9862;49.462;11.054;2023-05-14T08:37:32;97968.84;;;16.36;100.00
19447;BME280;9862;49.462;11.054;2023-05-14T08:39:59;97974.63;;;16.28;100.00
19447;BME280;9862;49.462;11.054;2023-05-14T08:42:26;97971.88;;;16.23;100.00
19447;BME280;9862;49.462;11.054;2023-05-14T08:44:59;97969.75;;;16.25;100.00
19447;BME280;9862;49.462;11.054;2023-05-14T08:47:28;97968.84;;;16.36;100.00
19447;BME280;9862;49.462;11.054;2023-05-14T08:50:00;97964.53;;;16.35;100.00
19447;BME280;9862;49.462;11.054;2023-05-14T08:52:27;97971.03;;;16.39;100.00
19447;BME280;9862;49.462;11.054;2023-05-14T08:54:54;97965.66;;;16.39;100.00
19447;BME280;9862;49.462;11.054;2023-05-14T08:57:22;97964.91;;;16.44;100.00
19447;BME280;9862;49.462;11.054;2023-05-14T08:59:50;97972.72;;;16.45;100.00
19447;BME280;9862;49.462;11.054;2023-05-14T09:02:19;97968.25;;;16.51;100.00
19447;BME280;9862;49.462;11.054;2023-05-14T09:04:46;97966.50;;;16.62;100.00
19447;BME280;9862;49.462;11.054;2023-05-14T09:07:14;97958.59;;;16.72;100.00
19447;BME280;9862;49.462;11.054;2023-05-14T09:09:41;97962.50;;;16.64;100.00
19447;BME280;9862;49.462;11.054;2023-05-14T09:12:09;97958.44;;;16.62;100.00
19447;BME280;9862;49.462;11.054;2023-05-14T09:14:35;97959.81;;;16.64;100.00
19447;BME280;9862;49.462;11.054;2023-05-14T09:17:02;97966.00;;;16.65;100.00
19447;BME280;9862;49.462;11.054;2023-05-14T09:19:29;97956.78;;;16.77;100.00
19447;BME280;9862;49.462;11.054;2023-05-14T09:21:57;97959.28;;;16.84;100.00
19447;BME280;9862;49.462;11.054;2023-05-14T09:24:26;97949.09;;;16.86;100.00
19447;BME280;9862;49.462;11.054;2023-05-14T09:26:55;97952.25;;;17.05;100.00
19447;BME280;9862;49.462;11.054;2023-05-14T09:29:23;97948.44;;;17.23;100.00
19447;BME280;9862;49.462;11.054;2023-05-14T09:31:50;97945.91;;;17.38;100.00
19447;BME280;9862;49.462;11.054;2023-05-14T09:34:23;97937.94;;;17.48;100.00
19447;BME280;9862;49.462;11.054;2023-05-14T09:36:54;97940.97;;;17.57;100.00
19447;BME280;9862;49.462;11.054;2023-05-14T09:39:21;97941.72;;;17.52;100.00
19447;BME280;9862;49.462;11.054;2023-05-14T09:41:49;97934.50;;;17.58;100.00
19447;BME280;9862;49.462;11.054;2023-05-14T09:44:17;97942.19;;;17.44;100.00
19447;BME280;9862;49.462;11.054;2023-05-14T09:46:43;97924.16;;;17.44;100.00
19447;BME280;9862;49.462;11.054;2023-05-14T09:49:10;97923.78;;;17.63;100.00
19447;BME280;9862;49.462;11.054;2023-05-14T09:51:37;97925.63;;;17.57;100.00
19447;BME280;9862;49.462;11.054;2023-05-14T09:54:04;97918.13;;;17.64;100.00
19447;BME280;9862;49.462;11.054;2023-05-14T09:56:31;97916.03;;;17.66;100.00
19447;BME280;9862;49.462;11.054;2023-05-14T09:58:59;97918.22;;;17.69;100.00
19447;BME280;9862;49.462;11.054;2023-05-14T10:01:27;97917.03;;;17.60;100.00
19447;BME280;9862;49.462;11.054;2023-05-14T10:03:54;97921.41;;;17.66;100.00
19447;BME280;9862;49.462;11.054;2023-05-14T10:06:24;97922.44;;;17.33;100.00
19447;BME280;9862;49.462;11.054;2023-05-14T10:08:55;97914.09;;;17.08;100.00
19447;BME280;9862;49.462;11.054;2023-05-14T10:11:24;97918.63;;;17.02;100.00
19447;BME280;9862;49.462;11.054;2023-05-14T10:14:00;97908.53;;;17.14;100.00
19447;BME280;9862;49.462;11.054;2023-05-14T10:16:32;97905.50;;;17.33;100.00
19447;BME280;9862;49.462;11.054;2023-05-14T10:19:04;97904.66;;;17.59;100.00
19447;BME280;9862;49.462;11.054;2023-05-14T10:21:34;97898.91;;;17.78;100.00
19447;BME280;9862;49.462;11.054;2023-05-14T10:24:01;97899.13;;;18.08;100.00
19447;BME280;9862;49.462;11.054;2023-05-14T10:26:28;97895.88;;;18.11;100.00
19447;BME280;9862;49.462;11.054;2023-05-14T10:28:55;97899.88;;;18.03;100.00
19447;BME280;9862;49.462;11.054;2023-05-14T10:31:22;97896.78;;;18.27;100.00
19447;BME280;9862;49.462;11.054;2023-05-14T10:33:50;97888.97;;;18.25;100.00
19447;BME280;9862;49.462;11.054;2023-05-14T10:36:19;97888.97;;;18.25;100.00
19447;BME280;9862;49.462;11.054;2023-05-14T10:38:54;97882.50;;;18.26;100.00
19447;BME280;9862;49.462;11.054;2023-05-14T10:41:21;97880.25;;;18.08;100.00
19447;BME280;9862;49.462;11.054;2023-05-14T10:43:48;97878.47;;;17.82;100.00
19447;BME280;9862;49.462;11.054;2023-05-14T10:46:15;97877.38;;;17.83;100.00
19447;BME280;9862;49.462;11.054;2023-05-14T10:48:42;97875.81;;;17.87;100.00
19447;BME280;9862;49.462;11.054;2023-05-14T10:51:11;97871.56;;;17.96;100.00
19447;BME280;9862;49.462;11.054;2023-05-14T10:53:39;97871.03;;;17.99;100.00
19447;BME280;9862;49.462;11.054;2023-05-14T10:56:07;97875.31;;;17.58;100.00
19447;BME280;9862;49.462;11.054;2023-05-14T10:58:35;97885.03;;;17.05;100.00
19447;BME280;9862;49.462;11.054;2023-05-14T11:01:02;97869.38;;;16.97;100.00
19447;BME280;9862;49.462;11.054;2023-05-14T11:03:31;97867.97;;;16.89;100.00
19447;BME280;9862;49.462;11.054;2023-05-14T11:05:58;97870.50;;;17.01;100.00
19447;BME280;9862;49.462;11.054;2023-05-14T11:08:29;97873.03;;;17.12;100.00
19447;BME280;9862;49.462;11.054;2023-05-14T11:10:56;97860.38;;;17.40;100.00
19447;BME280;9862;49.462;11.054;2023-05-14T11:13:25;97857.56;;;17.62;100.00
19447;BME280;9862;49.462;11.054;2023-05-14T11:15:52;97856.75;;;17.61;100.00
19447;BME280;9862;49.462;11.054;2023-05-14T11:18:25;97858.53;;;17.78;100.00
19447;BME280;9862;49.462;11.054;2023-05-14T11:20:53;97854.34;;;17.65;100.00
19447;BME280;9862;49.462;11.054;2023-05-14T11:23:22;97848.88;;;17.50;100.00
19447;BME280;9862;49.462;11.054;2023-05-14T11:25:52;97853.78;;;17.58;100.00
19447;BME280;9862;49.462;11.054;2023-05-14T11:28:19;97843.59;;;17.65;100.00
19447;BME280;9862;49.462;11.054;2023-05-14T11:30:46;97848.53;;;17.41;100.00
19447;BME280;9862;49.462;11.054;2023-05-14T11:33:13;97846.78;;;17.57;100.00
19447;BME280;9862;49.462;11.054;2023-05-14T11:35:39;97841.41;;;17.62;100.00
19447;BME280;9862;49.462;11.054;2023-05-14T11:38:13;97846.59;;;17.68;100.00
19447;BME280;9862;49.462;11.054;2023-05-14T11:40:39;97851.63;;;17.60;100.00
19447;BME280;9862;49.462;11.054;2023-05-14T11:43:07;97840.47;;;17.46;100.00
19447;BME280;9862;49.462;11.054;2023-05-14T11:45:34;97842.13;;;17.47;100.00
19447;BME280;9862;49.462;11.054;2023-05-14T11:48:10;97834.91;;;17.53;100.00
19447;BME280;9862;49.462;11.054;2023-05-14T11:50:36;97830.44;;;17.68;100.00
19447;BME280;9862;49.462;11.054;2023-05-14T11:53:03;97834.00;;;17.74;100.00
19447;BME280;9862;49.462;11.054;2023-05-14T11:55:33;97835.91;;;17.79;100.00
19447;BME280;9862;49.462;11.054;2023-05-14T11:57:59;97827.59;;;17.85;100.00
19447;BME280;9862;49.462;11.054;2023-05-14T12:00:27;97825.00;;;17.95;100.00
19447;BME280;9862;49.462;11.054;2023-05-14T12:02:55;97830.00;;;17.82;100.00
19447;BME280;9862;49.462;11.054;2023-05-14T12:05:22;97827.84;;;17.79;100.00
19447;BME280;9862;49.462;11.054;2023-05-14T12:07:48;97828.44;;;17.86;100.00
19447;BME280;9862;49.462;11.054;2023-05-14T12:10:15;97824.13;;;17.90;100.00
19447;BME280;9862;49.462;11.054;2023-05-14T12:12:44;97817.94;;;17.89;100.00
19447;BME280;9862;49.462;11.054;2023-05-14T12:15:14;97824.41;;;17.93;100.00
19447;BME280;9862;49.462;11.054;2023-05-14T12:17:42;97816.91;;;17.95;100.00
19447;BME280;9862;49.462;11.054;2023-05-14T12:20:14;97811.03;;;18.09;100.00
19447;BME280;9862;49.462;11.054;2023-05-14T12:22:41;97817.78;;;18.06;100.00
19447;BME280;9862;49.462;11.054;2023-05-14T12:25:10;97805.47;;;18.25;100.00
19447;BME280;9862;49.462;11.054;2023-05-14T12:27:38;97801.69;;;18.26;100.00
19447;BME280;9862;49.462;11.054;2023-05-14T12:30:06;97801.69;;;18.26;100.00
19447;BME280;9862;49.462;11.054;2023-05-14T12:32:34;97804.94;;;18.28;100.00
19447;BME280;9862;49.462;11.054;2023-05-14T12:35:02;97796.31;;;18.26;100.00
19447;BME280;9862;49.462;11.054;2023-05-14T12:37:29;97802.75;;;18.20;100.00
19447;BME280;9862;49.462;11.054;2023-05-14T12:39:56;97800.09;;;18.30;100.00
19447;BME280;9862;49.462;11.054;2023-05-14T12:42:22;97787.75;;;18.45;100.00
19447;BME280;9862;49.462;11.054;2023-05-14T12:44:49;97793.47;;;18.64;100.00
19447;BME280;9862;49.462;11.054;2023-05-14T12:47:15;97785.16;;;18.75;100.00
19447;BME280;9862;49.462;11.054;2023-05-14T12:49:42;97781.66;;;18.90;100.00
19447;BME280;9862;49.462;11.054;2023-05-14T12:52:10;97784.06;;;18.66;100.00